Time;durP1;ratioP1;P1;durP2;ratioP2;P2;SDS_P1;SDS_P2;PMS_P1;PMS_P2;Temp;Humidity;BMP_temperature;BMP_pressure;BME280_temperature;BME280_humidity;BME280_pressure;Samples;Min_cycle;Max_cycle;Signal;HPM_P1;HPM_P2
2021/10/08 00:02:10;;;;;;;24.02;15.10;;;;;;;7.74;80.06;101448.75;4988156;28;106195;-62
2021/10/08 00:04:36;;;;;;;27.27;15.88;;;;;;;7.70;80.08;101448.13;4989000;28;106273;-61
2021/10/08 00:07:01;;;;;;;22.90;15.60;;;;;;;7.68;79.99;101452.72;4988919;28;106328;-61
2021/10/08 00:09:30;;;;;;;20.52;14.88;;;;;;;7.64;80.39;101453.94;4988110;28;105968;-61
2021/10/08 00:11:56;;;;;;;26.95;14.55;;;;;;;7.60;80.00;101455.97;4988021;28;105931;-61
2021/10/08 00:14:23;;;;;;;24.83;15.60;;;;;;;7.57;80.18;101455.34;4988896;28;105678;-61
2021/10/08 00:16:49;;;;;;;22.77;14.93;;;;;;;7.55;79.76;101457.28;4987426;28;106209;-61
2021/10/08 00:19:14;;;;;;;26.77;14.70;;;;;;;7.51;80.13;101461.16;4988211;28;107097;-61
2021/10/08 00:21:39;;;;;;;29.00;14.60;;;;;;;7.47;79.85;101454.41;4988150;28;106022;-62
2021/10/08 00:24:05;;;;;;;25.40;14.25;;;;;;;7.43;80.69;101451.97;4988946;28;106059;-61
2021/10/08 00:26:30;;;;;;;25.08;15.52;;;;;;;7.41;80.25;101461.03;4988065;28;106647;-62
2021/10/08 00:28:55;;;;;;;28.33;14.15;;;;;;;7.37;80.09;101460.41;4988069;28;106402;-61
2021/10/08 00:31:21;;;;;;;23.27;14.98;;;;;;;7.35;79.98;101458.81;4987957;28;105979;-61
2021/10/08 00:33:46;;;;;;;29.42;16.30;;;;;;;7.31;80.38;101460.03;4988997;28;106177;-62
2021/10/08 00:36:11;;;;;;;25.17;15.43;;;;;;;7.27;80.13;101454.09;4987764;28;106102;-61
2021/10/08 00:38:37;;;;;;;21.33;14.07;;;;;;;7.23;80.24;101458.81;4987889;28;106042;-60
2021/10/08 00:41:04;;;;;;;22.40;13.73;;;;;;;7.23;80.63;101461.47;4987997;28;106521;-60
2021/10/08 00:43:30;;;;;;;24.38;13.85;;;;;;;7.19;80.38;101461.78;4988915;28;105912;-61
2021/10/08 00:45:55;;;;;;;21.10;14.45;;;;;;;7.16;80.00;101462.88;4988217;28;105920;-61
2021/10/08 00:48:21;;;;;;;24.23;14.25;;;;;;;7.13;80.20;101475.53;4987779;28;106550;-62
2021/10/08 00:50:48;;;;;;;24.73;13.13;;;;;;;7.08;80.33;101471.41;4987819;28;105909;-61
2021/10/08 00:53:16;;;;;;;22.25;13.23;;;;;;;7.04;80.12;101477.91;4988364;28;105838;-62
2021/10/08 00:55:52;;;;;;;24.50;13.70;;;;;;;7.02;80.29;101479.81;4988025;28;106093;-60
2021/10/08 00:58:20;;;;;;;28.25;13.65;;;;;;;7.00;80.77;101483.53;4987339;28;106187;-60
2021/10/08 01:00:47;;;;;;;21.83;13.18;;;;;;;6.95;80.27;101481.25;4987378;28;106137;-61
2021/10/08 01:03:13;;;;;;;21.98;14.23;;;;;;;6.93;80.40;101477.88;4987982;28;106059;-61
2021/10/08 01:05:41;;;;;;;23.60;14.02;;;;;;;6.90;80.24;101489.56;4987916;28;106081;-61
2021/10/08 01:08:07;;;;;;;35.33;14.15;;;;;;;6.86;80.34;101477.50;4987191;28;105927;-61
2021/10/08 01:10:33;;;;;;;27.27;11.63;;;;;;;6.84;80.73;101475.91;4986034;28;106755;-61
2021/10/08 01:13:00;;;;;;;22.67;12.88;;;;;;;6.80;80.64;101477.94;4987917;28;106515;-62
2021/10/08 01:15:26;;;;;;;26.70;13.88;;;;;;;6.77;80.92;101478.16;4987874;28;105975;-60
2021/10/08 01:17:53;;;;;;;20.70;12.27;;;;;;;6.73;80.24;101474.91;4987340;28;106043;-61
2021/10/08 01:20:18;;;;;;;22.27;13.15;;;;;;;6.70;80.19;101472.47;4987412;28;105988;-61
2021/10/08 01:22:44;;;;;;;28.13;13.82;;;;;;;6.68;80.77;101477.03;4988516;28;105893;-61
2021/10/08 01:25:09;;;;;;;25.23;13.85;;;;;;;6.64;80.76;101480.88;4990840;28;105780;-61
2021/10/08 01:27:35;;;;;;;24.30;12.93;;;;;;;6.62;80.47;101484.59;4990804;28;105962;-61
2021/10/08 01:30:02;;;;;;;23.27;13.48;;;;;;;6.55;80.72;101479.75;4990419;28;105833;-61
2021/10/08 01:32:29;;;;;;;23.30;13.05;;;;;;;6.52;80.43;101492.34;4991623;28;105924;-62
2021/10/08 01:34:55;;;;;;;22.95;12.43;;;;;;;6.48;81.05;101488.25;4990924;28;106204;-61
2021/10/08 01:37:20;;;;;;;27.90;13.82;;;;;;;6.45;80.36;101484.00;4990370;28;106145;-62
2021/10/08 01:39:47;;;;;;;19.15;12.88;;;;;;;6.39;80.50;101489.75;4990478;28;106033;-62
2021/10/08 01:42:13;;;;;;;25.98;14.18;;;;;;;6.35;80.52;101504.19;4991342;28;106036;-62
2021/10/08 01:44:39;;;;;;;23.10;13.25;;;;;;;6.31;80.80;101495.59;4990602;28;106086;-61
2021/10/08 01:47:05;;;;;;;19.88;12.05;;;;;;;6.28;80.80;101495.84;4990525;28;105792;-62
2021/10/08 01:49:30;;;;;;;24.90;13.38;;;;;;;6.25;80.89;101493.41;4990501;28;105951;-61
2021/10/08 01:51:57;;;;;;;22.13;11.90;;;;;;;6.20;80.96;101498.19;4991280;28;106268;-61
2021/10/08 01:54:22;;;;;;;22.13;12.25;;;;;;;6.18;80.73;101497.44;4990615;28;106779;-62
2021/10/08 01:56:47;;;;;;;24.38;13.95;;;;;;;6.14;80.66;101499.47;4990071;28;106015;-61
2021/10/08 01:59:14;;;;;;;29.80;12.65;;;;;;;6.10;81.11;101501.47;4990342;28;105860;-61
2021/10/08 02:01:40;;;;;;;24.63;12.38;;;;;;;6.09;80.75;101504.22;4990804;28;106091;-62
2021/10/08 02:04:05;;;;;;;33.88;13.63;;;;;;;6.05;80.88;101503.59;4990561;28;106292;-61
2021/10/08 02:06:31;;;;;;;24.77;12.98;;;;;;;6.02;80.74;101498.53;4989797;28;106741;-60
2021/10/08 02:08:56;;;;;;;20.48;12.60;;;;;;;5.98;81.03;101501.50;4995486;28;105953;-60
2021/10/08 02:11:22;;;;;;;30.52;12.93;;;;;;;5.93;81.04;101509.72;4990855;28;106076;-62
2021/10/08 02:13:47;;;;;;;24.05;12.52;;;;;;;5.90;81.08;101504.66;4989988;28;106196;-62
2021/10/08 02:16:12;;;;;;;20.25;12.40;;;;;;;5.87;81.47;101518.94;4989985;28;106299;-61
2021/10/08 02:18:38;;;;;;;24.90;13.18;;;;;;;5.85;81.08;101517.34;4990002;28;105956;-61
2021/10/08 02:21:03;;;;;;;25.42;12.80;;;;;;;5.81;81.05;101516.72;4991190;28;105844;-62
2021/10/08 02:23:29;;;;;;;26.42;13.45;;;;;;;5.80;80.92;101514.19;4990299;28;106145;-61
2021/10/08 02:25:54;;;;;;;27.60;13.10;;;;;;;5.75;81.15;101511.84;4989925;28;106003;-62
2021/10/08 02:28:19;;;;;;;22.98;12.38;;;;;;;5.72;81.32;101522.66;4989692;28;105879;-61
2021/10/08 02:30:45;;;;;;;35.20;13.30;;;;;;;5.68;81.05;101532.59;4990669;28;105987;-61
2021/10/08 02:33:10;;;;;;;25.90;14.10;;;;;;;5.65;81.27;101516.09;4990303;28;106234;-62
2021/10/08 02:35:36;;;;;;;28.02;13.13;;;;;;;5.62;81.12;101521.56;4989307;28;105841;-60
2021/10/08 02:38:01;;;;;;;23.25;13.57;;;;;;;5.58;81.26;101520.97;4988305;28;106059;-61
2021/10/08 02:40:27;;;;;;;23.98;13.65;;;;;;;5.55;81.16;101518.50;4990432;28;106518;-61
2021/10/08 02:42:52;;;;;;;27.45;14.35;;;;;;;5.51;81.45;101517.03;4990000;28;106161;-61
2021/10/08 02:45:19;;;;;;;30.38;13.77;;;;;;;5.49;81.29;101524.22;4989454;28;105886;-61
2021/10/08 02:47:45;;;;;;;30.73;14.73;;;;;;;5.47;81.45;101526.09;4989665;28;105912;-61
2021/10/08 02:50:10;;;;;;;24.27;13.82;;;;;;;5.45;81.24;101533.31;4989880;28;105924;-60
2021/10/08 02:52:36;;;;;;;30.00;14.07;;;;;;;5.43;81.41;101533.41;4989833;28;106174;-61
2021/10/08 02:55:03;;;;;;;24.73;12.98;;;;;;;5.39;81.51;101527.47;4988690;28;106231;-60
2021/10/08 02:57:29;;;;;;;25.77;13.15;;;;;;;5.37;81.39;101529.41;4988384;28;105696;-60
2021/10/08 02:59:54;;;;;;;25.02;12.88;;;;;;;5.34;81.51;101526.09;4990028;28;105909;-61
2021/10/08 03:02:19;;;;;;;25.92;12.70;;;;;;;5.32;81.56;101536.78;4989425;28;105683;-62
2021/10/08 03:04:46;;;;;;;25.92;13.27;;;;;;;5.31;81.58;101539.53;4989049;28;106189;-62
2021/10/08 03:07:11;;;;;;;23.77;13.07;;;;;;;5.28;81.57;101532.66;4988908;28;106070;-62
2021/10/08 03:09:37;;;;;;;25.23;12.93;;;;;;;5.27;81.62;101538.88;4989310;28;105998;-61
2021/10/08 03:12:02;;;;;;;30.20;13.05;;;;;;;5.23;81.51;101534.75;4988946;28;106731;-61
2021/10/08 03:14:28;;;;;;;19.45;12.48;;;;;;;5.21;81.38;101536.66;4988409;28;106581;-62
2021/10/08 03:16:53;;;;;;;23.95;12.38;;;;;;;5.18;81.51;101539.50;4988394;28;113903;-62
2021/10/08 03:19:18;;;;;;;29.88;13.52;;;;;;;5.15;81.53;101544.97;4989606;28;105917;-61
2021/10/08 03:21:44;;;;;;;24.52;13.63;;;;;;;5.12;81.75;101545.19;4988680;28;105877;-62
2021/10/08 03:24:09;;;;;;;22.17;13.35;;;;;;;5.11;81.53;101548.78;4988876;28;106171;-61
2021/10/08 03:26:34;;;;;;;27.10;13.18;;;;;;;5.06;81.68;101549.94;4988004;28;106091;-62
2021/10/08 03:29:00;;;;;;;29.30;13.32;;;;;;;5.04;81.58;101548.34;4989060;28;105891;-61
2021/10/08 03:31:25;;;;;;;23.45;12.77;;;;;;;5.00;81.64;101547.69;4989080;28;106250;-62
2021/10/08 03:33:51;;;;;;;20.58;12.65;;;;;;;4.99;81.52;101545.13;4988636;28;106014;-62
2021/10/08 03:36:30;;;;;;;20.98;11.15;;;;;;;4.97;81.65;101542.59;4987960;28;106223;-61
2021/10/08 03:38:57;;;;;;;26.35;12.38;;;;;;;4.95;81.68;101541.00;4989657;28;105868;-62
2021/10/08 03:41:22;;;;;;;25.67;12.90;;;;;;;4.92;81.61;101549.97;4988869;28;106121;-63
2021/10/08 03:43:52;;;;;;;21.15;12.43;;;;;;;4.89;81.55;101553.69;4988231;28;106572;-63
2021/10/08 03:46:18;;;;;;;21.17;11.85;;;;;;;4.87;81.90;101549.44;4987924;28;106023;-63
2021/10/08 03:51:15;;;;;;;24.95;14.15;;;;;;;4.84;81.67;101554.91;4985295;28;105947;-62
2021/10/08 03:53:40;;;;;;;20.65;12.02;;;;;;;4.81;81.74;101549.81;4987979;28;106139;-62
2021/10/08 03:56:05;;;;;;;26.48;12.52;;;;;;;4.77;81.58;101548.34;4988066;28;107588;-61
2021/10/08 03:58:31;;;;;;;23.90;12.82;;;;;;;4.74;81.77;101555.53;4988643;28;106182;-62
2021/10/08 04:00:56;;;;;;;33.15;16.58;;;;;;;4.70;81.74;101559.31;4988241;28;106335;-62
2021/10/08 04:03:21;;;;;;;22.58;13.30;;;;;;;4.67;82.06;101554.19;4988344;28;105976;-60
2021/10/08 04:05:47;;;;;;;18.25;11.77;;;;;;;4.66;81.65;101549.88;4987818;28;109194;-60
2021/10/08 04:08:12;;;;;;;22.58;11.30;;;;;;;4.63;81.98;101552.69;4988958;28;105876;-60
2021/10/08 04:10:38;;;;;;;32.35;13.23;;;;;;;4.61;81.80;101559.88;4988383;28;105719;-61
2021/10/08 04:13:03;;;;;;;27.58;12.40;;;;;;;4.59;81.94;101559.13;4988141;28;106001;-60
2021/10/08 04:15:28;;;;;;;28.10;12.77;;;;;;;4.59;81.96;101559.13;4987691;28;105979;-60
2021/10/08 04:17:54;;;;;;;22.23;13.23;;;;;;;4.58;82.08;101562.72;4988721;28;105945;-60
2021/10/08 04:20:19;;;;;;;20.83;12.43;;;;;;;4.58;82.19;101562.72;4988214;28;106182;-60
2021/10/08 04:22:44;;;;;;;20.50;12.02;;;;;;;4.56;82.13;101567.25;4987331;28;106247;-60
2021/10/08 04:25:10;;;;;;;20.63;10.63;;;;;;;4.53;81.88;101564.81;4987838;28;105853;-61
2021/10/08 04:27:35;;;;;;;24.65;12.27;;;;;;;4.49;81.80;101568.59;4988699;28;105811;-61
2021/10/08 04:30:01;;;;;;;19.67;12.57;;;;;;;4.46;81.59;101577.53;4987920;28;106209;-61
2021/10/08 04:32:26;;;;;;;21.23;12.88;;;;;;;4.44;81.63;101570.66;4986921;28;106076;-60
2021/10/08 04:34:51;;;;;;;25.80;11.93;;;;;;;4.42;81.98;101577.84;4987525;28;105858;-61
2021/10/08 04:37:17;;;;;;;19.98;12.93;;;;;;;4.39;81.78;101579.72;4987433;28;105900;-61
2021/10/08 04:39:42;;;;;;;24.90;12.02;;;;;;;4.37;81.71;101586.88;4988007;28;106246;-62
2021/10/08 04:42:07;;;;;;;30.35;13.85;;;;;;;4.36;81.73;101585.19;4987732;28;106343;-61
2021/10/08 04:44:33;;;;;;;25.30;12.70;;;;;;;4.33;81.80;101584.53;4987663;28;106214;-62
2021/10/08 04:46:59;;;;;;;23.83;12.05;;;;;;;4.31;81.94;101584.63;4987501;28;106219;-60
2021/10/08 04:49:25;;;;;;;21.10;12.57;;;;;;;4.29;81.77;101583.88;4987641;28;106125;-60
2021/10/08 04:51:50;;;;;;;23.40;11.00;;;;;;;4.28;81.78;101586.59;4987349;28;106030;-60
2021/10/08 04:54:16;;;;;;;24.40;12.35;;;;;;;4.28;81.84;101587.44;4986963;28;116682;-63
2021/10/08 04:56:41;;;;;;;29.33;12.45;;;;;;;4.27;82.15;101585.75;4988166;28;106207;-61
2021/10/08 04:59:07;;;;;;;26.63;13.20;;;;;;;4.27;81.83;101595.47;4989232;28;106236;-61
2021/10/08 05:01:32;;;;;;;26.58;12.32;;;;;;;4.28;82.15;101591.88;4990605;28;105903;-61
2021/10/08 05:03:57;;;;;;;18.35;12.50;;;;;;;4.27;81.83;101590.19;4990576;28;106308;-61
2021/10/08 05:06:23;;;;;;;23.67;13.23;;;;;;;4.24;81.85;101591.22;4991744;28;105798;-60
2021/10/08 05:08:48;;;;;;;23.38;11.63;;;;;;;4.24;82.02;101593.88;4991169;28;106295;-60
2021/10/08 05:11:14;;;;;;;23.20;13.02;;;;;;;4.25;81.72;101595.53;4991042;28;105782;-62
2021/10/08 05:13:39;;;;;;;25.63;15.02;;;;;;;4.26;82.03;101589.31;4990452;28;106060;-62
2021/10/08 05:16:05;;;;;;;20.58;12.48;;;;;;;4.27;81.84;101590.19;4991473;28;105800;-61
2021/10/08 05:18:30;;;;;;;23.50;13.02;;;;;;;4.28;82.07;101589.22;4990995;28;106219;-62
2021/10/08 05:20:55;;;;;;;26.67;12.50;;;;;;;4.31;81.94;101591.69;4990432;28;106020;-60
2021/10/08 05:23:21;;;;;;;22.65;12.80;;;;;;;4.35;82.15;101587.94;4990693;28;106037;-61
2021/10/08 05:25:46;;;;;;;26.45;13.63;;;;;;;4.42;82.26;101588.41;4991077;28;106018;-60
2021/10/08 05:28:12;;;;;;;23.95;12.70;;;;;;;4.48;82.40;101590.63;4988942;28;106362;-60
2021/10/08 05:30:38;;;;;;;25.02;12.77;;;;;;;4.55;82.30;101595.44;4990081;28;106404;-61
2021/10/08 05:33:07;;;;;;;22.85;12.40;;;;;;;4.64;82.50;101596.63;4990320;28;105987;-60
2021/10/08 05:35:32;;;;;;;21.27;13.63;;;;;;;4.72;82.30;101599.63;4990785;28;106116;-58
2021/10/08 05:37:57;;;;;;;18.92;11.73;;;;;;;4.84;82.68;101599.78;4990445;28;106484;-60
2021/10/08 05:40:23;;;;;;;22.98;12.65;;;;;;;4.94;82.55;101590.34;4990379;28;106862;-60
2021/10/08 05:42:48;;;;;;;21.60;12.43;;;;;;;5.07;82.55;101596.53;4990046;28;106055;-60
2021/10/08 05:45:14;;;;;;;28.58;13.13;;;;;;;5.19;82.37;101599.31;4991241;28;105882;-60
2021/10/08 05:47:39;;;;;;;23.52;13.70;;;;;;;5.31;82.31;101609.06;4989189;28;106206;-61
2021/10/08 05:50:05;;;;;;;27.17;14.02;;;;;;;5.46;82.34;101607.22;4989740;28;106644;-60
2021/10/08 05:52:30;;;;;;;29.15;13.98;;;;;;;5.61;82.22;101609.78;4990021;28;106196;-61
2021/10/08 05:54:56;;;;;;;25.80;13.40;;;;;;;5.74;82.55;101614.16;4991143;28;105836;-60
2021/10/08 05:57:21;;;;;;;24.25;13.52;;;;;;;5.88;82.33;101620.31;4990044;28;105903;-60
2021/10/08 05:59:46;;;;;;;25.55;13.20;;;;;;;6.04;82.35;101623.63;4988826;28;106060;-60
2021/10/08 06:02:12;;;;;;;25.55;12.93;;;;;;;6.21;81.99;101621.59;4987704;28;106343;-60
2021/10/08 06:04:37;;;;;;;19.95;11.60;;;;;;;6.39;82.05;101632.69;4988535;28;106733;-61
2021/10/08 06:07:03;;;;;;;19.80;11.93;;;;;;;6.56;81.55;101634.16;4987924;28;106466;-60
2021/10/08 06:09:29;;;;;;;20.65;12.00;;;;;;;6.75;81.83;101636.34;4986982;28;106043;-61
2021/10/08 06:11:54;;;;;;;22.75;14.15;;;;;;;6.93;81.97;101642.13;4987831;28;106413;-60
2021/10/08 06:14:20;;;;;;;27.70;12.90;;;;;;;7.09;81.65;101637.41;4988485;28;106751;-63
2021/10/08 06:16:45;;;;;;;19.40;11.30;;;;;;;7.25;81.54;101633.63;4990045;28;106019;-60
2021/10/08 06:19:11;;;;;;;19.00;11.95;;;;;;;7.42;80.98;101638.53;4989884;28;106646;-63
2021/10/08 06:21:36;;;;;;;23.42;11.43;;;;;;;7.59;80.92;101639.09;4989483;28;105918;-61
2021/10/08 06:24:02;;;;;;;21.05;11.73;;;;;;;7.81;80.44;101632.16;4990325;28;105942;-61
2021/10/08 06:26:27;;;;;;;22.60;10.23;;;;;;;8.00;80.43;101647.53;4990168;28;106251;-61
2021/10/08 06:28:52;;;;;;;23.90;11.85;;;;;;;8.18;80.30;101645.25;4989152;28;106421;-62
2021/10/08 06:31:18;;;;;;;20.27;11.13;;;;;;;8.37;80.28;101648.16;4989284;28;105997;-64
2021/10/08 06:33:43;;;;;;;19.08;10.90;;;;;;;8.59;80.32;101649.16;4989447;28;105826;-63
2021/10/08 06:36:08;;;;;;;19.95;11.00;;;;;;;8.80;79.99;101647.44;4989572;28;106019;-63
2021/10/08 06:38:34;;;;;;;17.02;10.40;;;;;;;8.98;79.40;101644.28;4987346;28;106086;-64
2021/10/08 06:40:59;;;;;;;26.63;11.30;;;;;;;9.20;79.16;101645.19;4987727;28;105778;-61
2021/10/08 06:43:24;;;;;;;20.52;10.52;;;;;;;9.40;78.77;101654.19;4989809;28;105756;-61
2021/10/08 06:45:50;;;;;;;18.00;11.20;;;;;;;9.59;78.12;101657.00;4989611;28;106110;-64
2021/10/08 06:48:15;;;;;;;20.40;9.30;;;;;;;9.79;78.29;101662.50;4988983;28;106063;-61
2021/10/08 06:50:41;;;;;;;48.15;28.63;;;;;;;10.06;78.10;101663.78;4989468;28;106448;-63
2021/10/08 06:53:09;;;;;;;20.98;10.95;;;;;;;10.26;77.58;101656.75;4990252;28;105830;-61
2021/10/08 06:55:34;;;;;;;27.05;10.88;;;;;;;10.49;76.67;101663.63;4989226;28;105862;-62
2021/10/08 06:57:59;;;;;;;18.48;10.18;;;;;;;10.74;76.44;101664.13;4989332;28;105854;-60
2021/10/08 07:00:25;;;;;;;22.67;10.07;;;;;;;10.92;75.76;101674.16;4989102;28;106035;-63
2021/10/08 07:02:53;;;;;;;20.48;10.27;;;;;;;11.07;75.50;101672.81;4990069;28;105885;-60
2021/10/08 07:05:20;;;;;;;18.30;10.60;;;;;;;11.22;74.46;101680.38;4989381;28;106059;-61
2021/10/08 07:07:45;;;;;;;18.83;9.30;;;;;;;11.40;74.27;101677.88;4988893;28;106103;-63
2021/10/08 07:10:12;;;;;;;16.83;9.98;;;;;;;11.57;73.53;101673.69;4989052;28;106090;-63
2021/10/08 07:12:37;;;;;;;17.75;9.13;;;;;;;11.78;73.40;101676.19;4988937;28;105874;-60
2021/10/08 07:15:06;;;;;;;17.55;9.70;;;;;;;11.96;72.43;101685.22;4988914;28;106130;-61
2021/10/08 07:17:31;;;;;;;22.10;9.55;;;;;;;12.16;72.54;101675.31;4988467;28;105993;-61
2021/10/08 07:19:57;;;;;;;17.33;9.52;;;;;;;12.38;71.44;101685.84;4988592;28;105868;-62
2021/10/08 07:22:22;;;;;;;19.85;9.15;;;;;;;12.56;70.85;101694.78;4989121;28;105952;-61
2021/10/08 07:24:49;;;;;;;16.70;9.40;;;;;;;12.79;70.35;101700.56;4989444;28;106629;-63
2021/10/08 07:27:15;;;;;;;15.45;8.63;;;;;;;13.04;70.36;101700.91;4988299;28;106204;-63
2021/10/08 07:29:41;;;;;;;13.70;8.65;;;;;;;13.30;69.63;101700.16;4989077;28;105860;-62
2021/10/08 07:32:06;;;;;;;20.63;9.43;;;;;;;13.50;68.52;101706.25;4989675;28;105704;-60
2021/10/08 07:34:31;;;;;;;18.45;9.68;;;;;;;13.73;67.89;101706.63;4988899;28;105846;-61
2021/10/08 07:36:57;;;;;;;20.02;10.07;;;;;;;13.93;67.05;101711.81;4988060;28;105919;-61
2021/10/08 07:39:22;;;;;;;19.25;8.55;;;;;;;14.13;66.33;101718.66;4988218;28;105929;-61
2021/10/08 07:41:48;;;;;;;16.52;8.15;;;;;;;14.21;64.75;101724.09;4989165;28;106147;-61
2021/10/08 07:44:13;;;;;;;21.38;10.32;;;;;;;14.33;64.71;101724.66;4987535;28;105857;-61
2021/10/08 07:46:39;;;;;;;16.90;9.15;;;;;;;14.53;63.49;101725.31;4987402;28;105976;-61
2021/10/08 07:49:04;;;;;;;17.55;8.65;;;;;;;14.52;61.70;101723.63;4988105;28;105890;-61
2021/10/08 07:51:30;;;;;;;16.05;9.23;;;;;;;14.43;61.30;101718.38;4987561;28;105863;-61
2021/10/08 07:53:56;;;;;;;16.27;8.40;;;;;;;14.59;61.81;101713.09;4988508;28;106126;-62
2021/10/08 07:56:21;;;;;;;16.63;8.70;;;;;;;14.91;61.30;101711.59;4988277;28;105892;-61
2021/10/08 07:58:46;;;;;;;17.40;9.07;;;;;;;15.27;61.53;101708.72;4988338;28;106287;-61
2021/10/08 08:01:12;;;;;;;24.38;15.50;;;;;;;15.72;60.77;101711.97;4989630;28;105840;-64
2021/10/08 08:03:38;;;;;;;20.67;9.52;;;;;;;16.18;59.80;101723.06;4988324;28;106200;-63
2021/10/08 08:06:04;;;;;;;16.83;9.98;;;;;;;16.63;58.25;101718.09;4987283;28;105969;-64
2021/10/08 08:08:29;;;;;;;24.45;10.48;;;;;;;17.15;57.32;101716.72;4988409;28;105982;-64
2021/10/08 08:10:55;;;;;;;18.75;9.95;;;;;;;18.90;55.99;101715.91;4988455;28;106022;-62
2021/10/08 08:13:20;;;;;;;19.40;12.32;;;;;;;21.85;55.57;101714.38;4988510;28;106173;-61
2021/10/08 08:15:46;;;;;;;21.02;9.27;;;;;;;24.14;50.12;101718.66;4987721;28;105814;-63
2021/10/08 08:18:11;;;;;;;15.95;8.50;;;;;;;26.14;47.55;101722.56;4988106;28;105813;-62
2021/10/08 08:20:36;;;;;;;18.95;8.55;;;;;;;27.79;42.64;101723.94;4988358;28;105810;-64
2021/10/08 08:23:02;;;;;;;15.60;8.15;;;;;;;29.16;39.63;101727.19;4988375;28;106101;-62
2021/10/08 08:25:27;;;;;;;18.38;8.45;;;;;;;30.32;34.78;101722.13;4987981;28;105801;-62
2021/10/08 08:27:53;;;;;;;16.35;8.85;;;;;;;30.95;32.16;101726.81;4988256;28;105861;-62
2021/10/08 08:30:18;;;;;;;16.52;8.65;;;;;;;32.09;28.03;101726.94;4989107;28;105885;-63
2021/10/08 08:32:43;;;;;;;19.83;8.57;;;;;;;33.01;25.36;101728.53;4987612;28;106182;-62
2021/10/08 08:35:09;;;;;;;21.63;9.10;;;;;;;33.88;22.67;101733.44;4988045;28;106144;-63
2021/10/08 08:37:35;;;;;;;16.00;9.13;;;;;;;34.64;21.47;101721.00;4986442;28;106044;-62
2021/10/08 08:40:04;;;;;;;18.83;9.27;;;;;;;34.84;20.60;101720.75;4988203;28;106091;-63
2021/10/08 08:42:30;;;;;;;;;;;;;;;35.77;18.36;101718.53;4987009;28;106179;-62
2021/10/08 08:44:55;;;;;;;16.65;9.23;;;;;;;36.34;18.94;101721.09;4988016;28;106154;-63
2021/10/08 08:47:21;;;;;;;20.33;9.00;;;;;;;37.14;17.67;101727.13;4987118;28;105908;-62
2021/10/08 08:49:48;;;;;;;16.27;8.52;;;;;;;37.53;17.59;101730.38;4988928;28;106085;-62
2021/10/08 08:52:14;;;;;;;16.92;9.40;;;;;;;37.50;16.61;101729.06;4988264;28;106268;-62
2021/10/08 08:54:41;;;;;;;18.25;9.65;;;;;;;38.09;16.24;101717.75;4988014;28;105857;-62
2021/10/08 08:57:15;;;;;;;14.93;9.52;;;;;;;38.93;15.48;101717.00;4987379;28;105945;-63
2021/10/08 09:00:06;;;;;;;20.10;9.60;;;;;;;39.66;14.83;101718.31;4988459;28;106070;-63
2021/10/08 09:02:33;;;;;;;15.13;8.77;;;;;;;40.34;14.45;101726.72;4987995;28;106073;-63
2021/10/08 09:04:58;;;;;;;21.92;9.70;;;;;;;40.30;14.35;101724.94;4987278;28;106599;-63
2021/10/08 09:07:31;;;;;;;19.52;11.77;;;;;;;39.84;14.28;101722.66;4986960;28;105859;-63
2021/10/08 09:10:09;;;;;;;25.13;17.40;;;;;;;40.57;13.85;101718.91;4987918;28;106004;-63
2021/10/08 09:12:34;;;;;;;17.45;10.68;;;;;;;41.24;13.07;101718.19;4987648;28;105860;-62
2021/10/08 09:15:00;;;;;;;16.42;9.55;;;;;;;41.35;12.71;101716.63;4986404;28;105857;-63
2021/10/08 09:17:27;;;;;;;18.75;8.82;;;;;;;41.41;12.16;101715.25;4987296;28;105880;-63
2021/10/08 09:19:56;;;;;;;16.13;8.60;;;;;;;41.63;11.97;101716.00;4987505;28;105894;-63
2021/10/08 09:22:26;;;;;;;16.45;8.18;;;;;;;42.28;11.42;101724.59;4987324;28;106181;-63
2021/10/08 09:24:53;;;;;;;16.13;8.77;;;;;;;42.96;11.02;101713.84;4986966;28;106053;-64
2021/10/08 09:27:20;;;;;;;14.98;9.48;;;;;;;43.43;10.89;101720.75;4987206;28;105917;-63
2021/10/08 09:29:55;;;;;;;16.38;11.02;;;;;;;43.98;10.22;101721.03;4987756;28;106000;-62
2021/10/08 09:32:22;;;;;;;13.55;9.15;;;;;;;44.14;10.22;101714.56;4987266;28;106184;-64
2021/10/08 09:35:07;;;;;;;15.98;9.07;;;;;;;44.22;9.85;101710.75;4986896;28;105890;-64
2021/10/08 09:37:34;;;;;;;16.33;8.90;;;;;;;44.77;9.74;101714.44;4986982;28;106141;-64
2021/10/08 09:40:00;;;;;;;19.02;10.05;;;;;;;44.27;9.68;101708.50;4988145;28;105914;-63
2021/10/08 09:42:34;;;;;;;13.32;9.10;;;;;;;44.58;9.56;101706.78;4987306;28;106546;-63
2021/10/08 09:45:00;;;;;;;16.02;8.75;;;;;;;45.26;9.00;101706.56;4989214;28;106019;-65
2021/10/08 09:47:27;;;;;;;17.77;8.63;;;;;;;45.12;9.11;101710.72;4989888;28;105884;-64
2021/10/08 09:50:06;;;;;;;16.65;8.98;;;;;;;44.44;9.09;101712.91;4990797;28;106090;-65
2021/10/08 09:52:32;;;;;;;14.13;9.15;;;;;;;44.77;8.84;101708.81;4988999;28;106003;-65
2021/10/08 09:54:59;;;;;;;15.20;8.63;;;;;;;44.58;8.68;101711.59;4990582;28;106556;-63
2021/10/08 09:57:27;;;;;;;14.05;8.77;;;;;;;44.27;8.31;101716.91;4986325;28;106585;-64
2021/10/08 09:59:54;;;;;;;13.20;8.50;;;;;;;43.50;9.27;101706.97;4989401;28;106452;-63
2021/10/08 10:02:21;;;;;;;15.43;8.85;;;;;;;44.07;8.80;101715.19;4985855;28;106073;-63
2021/10/08 10:04:50;;;;;;;18.85;8.70;;;;;;;44.57;8.63;101709.94;4988670;28;106072;-65
2021/10/08 10:07:21;;;;;;;15.63;9.45;;;;;;;45.22;8.34;101700.06;4988146;28;106565;-63
2021/10/08 10:09:47;;;;;;;21.35;9.57;;;;;;;45.88;8.02;101708.50;4988960;28;106365;-63
2021/10/08 10:12:20;;;;;;;15.80;8.52;;;;;;;46.40;7.55;101712.50;4988320;28;106114;-63
2021/10/08 10:14:49;;;;;;;17.38;8.88;;;;;;;46.64;7.40;101718.88;4986290;28;106432;-64
2021/10/08 10:17:15;;;;;;;;;;;;;;;46.95;7.02;101702.72;4988325;28;106138;-62
2021/10/08 10:19:43;;;;;;;15.43;8.63;;;;;;;46.87;7.86;101701.03;4986243;28;106138;-62
2021/10/08 10:22:14;;;;;;;17.98;10.23;;;;;;;46.21;7.46;101707.78;4988782;28;106391;-62
2021/10/08 10:24:42;;;;;;;15.38;9.20;;;;;;;45.68;7.67;101700.09;4987530;28;108813;-62
2021/10/08 10:27:08;;;;;;;17.37;8.70;;;;;;;45.69;7.37;101698.91;4987753;28;106487;-63
2021/10/08 10:29:36;;;;;;;13.75;9.00;;;;;;;46.06;7.49;101703.94;4985075;28;106751;-62
2021/10/08 10:32:04;;;;;;;16.80;9.27;;;;;;;46.64;7.51;101704.78;4983639;28;106323;-62
2021/10/08 10:34:34;;;;;;;18.75;8.65;;;;;;;46.59;7.27;101705.09;4981063;28;106603;-63
2021/10/08 10:36:59;;;;;;;14.93;8.70;;;;;;;46.53;7.17;101715.06;4973388;28;106199;-63
2021/10/08 10:39:24;;;;;;;14.18;8.82;;;;;;;47.41;6.73;101710.09;4971630;28;106037;-63
2021/10/08 10:42:14;;;;;;;15.77;8.55;;;;;;;48.16;6.50;101707.09;4969903;28;105857;-63
2021/10/08 10:45:08;;;;;;;13.80;8.32;;;;;;;48.75;6.20;101712.63;4977641;28;106098;-63
2021/10/08 10:47:36;;;;;;;18.85;8.80;;;;;;;48.47;6.29;101718.94;5009005;28;106345;-63
2021/10/08 10:50:18;;;;;;;15.32;8.80;;;;;;;47.84;6.54;101712.50;5010009;28;106040;-63
2021/10/08 10:52:55;;;;;;;16.98;9.15;;;;;;;47.84;6.56;101704.03;5009169;28;107106;-63
2021/10/08 10:55:23;;;;;;;13.43;8.45;;;;;;;47.61;6.84;101700.22;5009547;28;106877;-64
2021/10/08 10:57:48;;;;;;;18.95;8.52;;;;;;;47.88;6.42;101702.03;5009206;28;107926;-63
2021/10/08 11:00:34;;;;;;;13.77;9.40;;;;;;;48.75;6.26;101700.50;5009872;28;105787;-63
2021/10/08 11:03:03;;;;;;;17.30;8.93;;;;;;;48.81;5.87;101707.41;5008824;28;106222;-63
2021/10/08 11:05:30;;;;;;;20.20;8.48;;;;;;;48.78;5.86;101703.34;5009035;28;106847;-63
2021/10/08 11:08:08;;;;;;;15.15;8.23;;;;;;;48.32;6.28;101700.31;5009187;28;106094;-64
2021/10/08 11:10:35;;;;;;;13.52;8.25;;;;;;;47.84;6.18;101704.84;5010009;28;106440;-63